sensor_id;sensor_type;location;lat;lon;timestamp;P1;durP1;ratioP1;P2;durP2;ratioP2
48941;SDS011;35340;52.378;4.648;2023-02-21T00:01:19;4.30;;;1.90;;
48941;SDS011;35340;52.378;4.648;2023-02-21T00:06:47;4.90;;;1.88;;
48941;SDS011;35340;52.378;4.648;2023-02-21T00:09:31;4.25;;;1.90;;
48941;SDS011;35340;52.378;4.648;2023-02-21T00:12:14;4.88;;;1.90;;
48941;SDS011;35340;52.378;4.648;2023-02-21T00:17:42;4.20;;;1.77;;
48941;SDS011;35340;52.378;4.648;2023-02-21T00:23:10;5.35;;;2.20;;
48941;SDS011;35340;52.378;4.648;2023-02-21T00:25:54;3.95;;;1.80;;
48941;SDS011;35340;52.378;4.648;2023-02-21T00:31:22;3.47;;;1.85;;
48941;SDS011;35340;52.378;4.648;2023-02-21T00:36:51;4.00;;;1.92;;
48941;SDS011;35340;52.378;4.648;2023-02-21T00:39:35;4.45;;;2.08;;
48941;SDS011;35340;52.378;4.648;2023-02-21T00:45:03;3.80;;;1.80;;
48941;SDS011;35340;52.378;4.648;2023-02-21T00:47:48;4.38;;;1.90;;
48941;SDS011;35340;52.378;4.648;2023-02-21T00:50:32;4.10;;;1.70;;
48941;SDS011;35340;52.378;4.648;2023-02-21T00:53:16;3.85;;;1.50;;
48941;SDS011;35340;52.378;4.648;2023-02-21T00:56:00;4.28;;;1.95;;
48941;SDS011;35340;52.378;4.648;2023-02-21T00:58:44;5.50;;;1.88;;
48941;SDS011;35340;52.378;4.648;2023-02-21T01:01:28;4.93;;;1.67;;
48941;SDS011;35340;52.378;4.648;2023-02-21T01:04:12;4.20;;;1.80;;
48941;SDS011;35340;52.378;4.648;2023-02-21T01:06:56;3.33;;;1.65;;
48941;SDS011;35340;52.378;4.648;2023-02-21T01:09:40;4.70;;;1.90;;
48941;SDS011;35340;52.378;4.648;2023-02-21T01:12:24;4.40;;;1.80;;
48941;SDS011;35340;52.378;4.648;2023-02-21T01:15:08;3.92;;;2.00;;
48941;SDS011;35340;52.378;4.648;2023-02-21T01:17:52;5.28;;;2.00;;
48941;SDS011;35340;52.378;4.648;2023-02-21T01:20:36;3.67;;;1.77;;
48941;SDS011;35340;52.378;4.648;2023-02-21T01:23:20;3.05;;;1.70;;
48941;SDS011;35340;52.378;4.648;2023-02-21T01:28:48;4.78;;;2.08;;
48941;SDS011;35340;52.378;4.648;2023-02-21T01:34:15;5.03;;;2.08;;
48941;SDS011;35340;52.378;4.648;2023-02-21T01:39:43;3.15;;;1.65;;
48941;SDS011;35340;52.378;4.648;2023-02-21T01:48:04;3.08;;;1.65;;
48941;SDS011;35340;52.378;4.648;2023-02-21T01:50:53;4.40;;;1.90;;
48941;SDS011;35340;52.378;4.648;2023-02-21T01:53:40;4.13;;;1.73;;
48941;SDS011;35340;52.378;4.648;2023-02-21T01:56:25;4.82;;;1.90;;
48941;SDS011;35340;52.378;4.648;2023-02-21T01:59:09;3.70;;;1.83;;
48941;SDS011;35340;52.378;4.648;2023-02-21T02:02:03;3.95;;;1.80;;
48941;SDS011;35340;52.378;4.648;2023-02-21T02:04:52;4.75;;;2.00;;
48941;SDS011;35340;52.378;4.648;2023-02-21T02:07:38;2.92;;;1.70;;
48941;SDS011;35340;52.378;4.648;2023-02-21T02:10:22;4.03;;;2.03;;
48941;SDS011;35340;52.378;4.648;2023-02-21T02:36:48;3.58;;;1.90;;
48941;SDS011;35340;52.378;4.648;2023-02-21T02:44:43;4.43;;;2.45;;
48941;SDS011;35340;52.378;4.648;2023-02-21T02:47:22;4.63;;;2.42;;
48941;SDS011;35340;52.378;4.648;2023-02-21T02:49:52;4.35;;;2.20;;
48941;SDS011;35340;52.378;4.648;2023-02-21T02:52:19;3.67;;;2.03;;
48941;SDS011;35340;52.378;4.648;2023-02-21T02:54:55;3.55;;;1.92;;
48941;SDS011;35340;52.378;4.648;2023-02-21T02:57:25;3.63;;;1.90;;
48941;SDS011;35340;52.378;4.648;2023-02-21T02:59:54;4.03;;;2.10;;
48941;SDS011;35340;52.378;4.648;2023-02-21T03:10:26;4.78;;;1.90;;
48941;SDS011;35340;52.378;4.648;2023-02-21T03:13:04;4.93;;;2.17;;
48941;SDS011;35340;52.378;4.648;2023-02-21T03:15:38;4.25;;;2.25;;
48941;SDS011;35340;52.378;4.648;2023-02-21T03:18:27;3.20;;;1.88;;
48941;SDS011;35340;52.378;4.648;2023-02-21T03:21:00;3.38;;;1.88;;
48941;SDS011;35340;52.378;4.648;2023-02-21T03:23:29;4.78;;;2.20;;
48941;SDS011;35340;52.378;4.648;2023-02-21T03:25:58;4.95;;;2.17;;
48941;SDS011;35340;52.378;4.648;2023-02-21T03:28:28;3.28;;;1.92;;
48941;SDS011;35340;52.378;4.648;2023-02-21T03:30:55;2.95;;;1.90;;
48941;SDS011;35340;52.378;4.648;2023-02-21T03:33:24;3.42;;;2.00;;
48941;SDS011;35340;52.378;4.648;2023-02-21T03:35:49;3.92;;;2.10;;
48941;SDS011;35340;52.378;4.648;2023-02-21T03:38:16;6.93;;;2.33;;
48941;SDS011;35340;52.378;4.648;2023-02-21T03:40:41;3.83;;;1.90;;
48941;SDS011;35340;52.378;4.648;2023-02-21T03:43:07;4.63;;;1.95;;
48941;SDS011;35340;52.378;4.648;2023-02-21T03:45:33;3.67;;;1.73;;
48941;SDS011;35340;52.378;4.648;2023-02-21T03:47:59;4.40;;;1.92;;
48941;SDS011;35340;52.378;4.648;2023-02-21T03:50:25;2.78;;;1.77;;
48941;SDS011;35340;52.378;4.648;2023-02-21T03:52:50;4.38;;;2.00;;
48941;SDS011;35340;52.378;4.648;2023-02-21T03:55:16;3.13;;;1.90;;
48941;SDS011;35340;52.378;4.648;2023-02-21T03:57:41;3.30;;;2.08;;
48941;SDS011;35340;52.378;4.648;2023-02-21T04:00:07;3.88;;;2.00;;
48941;SDS011;35340;52.378;4.648;2023-02-21T04:02:33;3.55;;;2.33;;
48941;SDS011;35340;52.378;4.648;2023-02-21T04:04:58;3.80;;;1.95;;
48941;SDS011;35340;52.378;4.648;2023-02-21T04:07:24;3.85;;;1.98;;
48941;SDS011;35340;52.378;4.648;2023-02-21T04:09:50;4.13;;;2.00;;
48941;SDS011;35340;52.378;4.648;2023-02-21T04:12:15;3.85;;;1.88;;
48941;SDS011;35340;52.378;4.648;2023-02-21T04:14:41;3.85;;;2.00;;
48941;SDS011;35340;52.378;4.648;2023-02-21T04:17:06;5.75;;;2.10;;
48941;SDS011;35340;52.378;4.648;2023-02-21T04:19:32;3.70;;;1.90;;
48941;SDS011;35340;52.378;4.648;2023-02-21T04:21:57;4.05;;;2.05;;
48941;SDS011;35340;52.378;4.648;2023-02-21T04:24:22;4.00;;;2.22;;
48941;SDS011;35340;52.378;4.648;2023-02-21T04:26:48;3.67;;;2.00;;
48941;SDS011;35340;52.378;4.648;2023-02-21T04:29:13;5.28;;;2.20;;
48941;SDS011;35340;52.378;4.648;2023-02-21T04:31:39;2.58;;;1.75;;
48941;SDS011;35340;52.378;4.648;2023-02-21T04:34:04;5.88;;;2.15;;
48941;SDS011;35340;52.378;4.648;2023-02-21T04:36:30;3.55;;;2.00;;
48941;SDS011;35340;52.378;4.648;2023-02-21T04:38:55;3.67;;;2.10;;
48941;SDS011;35340;52.378;4.648;2023-02-21T04:41:21;3.35;;;2.20;;
48941;SDS011;35340;52.378;4.648;2023-02-21T04:43:47;5.85;;;2.33;;
48941;SDS011;35340;52.378;4.648;2023-02-21T04:46:13;3.33;;;2.10;;
48941;SDS011;35340;52.378;4.648;2023-02-21T04:48:43;4.15;;;2.28;;
48941;SDS011;35340;52.378;4.648;2023-02-21T04:51:14;3.55;;;2.13;;
48941;SDS011;35340;52.378;4.648;2023-02-21T04:53:41;4.47;;;1.90;;
48941;SDS011;35340;52.378;4.648;2023-02-21T04:56:06;3.88;;;2.08;;
48941;SDS011;35340;52.378;4.648;2023-02-21T04:58:32;3.30;;;2.00;;
48941;SDS011;35340;52.378;4.648;2023-02-21T05:00:57;4.97;;;2.00;;
48941;SDS011;35340;52.378;4.648;2023-02-21T05:03:23;3.53;;;2.13;;
48941;SDS011;35340;52.378;4.648;2023-02-21T05:05:49;4.43;;;2.10;;
48941;SDS011;35340;52.378;4.648;2023-02-21T05:08:15;3.47;;;1.85;;
48941;SDS011;35340;52.378;4.648;2023-02-21T05:10:43;3.58;;;1.92;;
48941;SDS011;35340;52.378;4.648;2023-02-21T05:13:10;3.08;;;1.80;;
48941;SDS011;35340;52.378;4.648;2023-02-21T05:15:36;2.95;;;1.70;;
48941;SDS011;35340;52.378;4.648;2023-02-21T05:18:01;2.53;;;1.67;;
48941;SDS011;35340;52.378;4.648;2023-02-21T05:20:27;3.50;;;2.10;;
48941;SDS011;35340;52.378;4.648;2023-02-21T05:22:52;3.78;;;1.83;;
48941;SDS011;35340;52.378;4.648;2023-02-21T05:25:19;2.65;;;1.58;;
48941;SDS011;35340;52.378;4.648;2023-02-21T05:27:47;3.30;;;1.70;;
48941;SDS011;35340;52.378;4.648;2023-02-21T05:30:14;4.18;;;2.10;;
48941;SDS011;35340;52.378;4.648;2023-02-21T05:32:41;3.25;;;2.00;;
48941;SDS011;35340;52.378;4.648;2023-02-21T05:35:08;3.20;;;2.10;;
48941;SDS011;35340;52.378;4.648;2023-02-21T05:37:34;2.97;;;1.80;;
48941;SDS011;35340;52.378;4.648;2023-02-21T05:40:00;2.50;;;1.70;;
48941;SDS011;35340;52.378;4.648;2023-02-21T05:42:25;6.18;;;2.08;;
48941;SDS011;35340;52.378;4.648;2023-02-21T05:44:51;6.60;;;2.22;;
48941;SDS011;35340;52.378;4.648;2023-02-21T05:47:16;6.20;;;2.10;;
48941;SDS011;35340;52.378;4.648;2023-02-21T05:49:41;4.43;;;1.90;;
48941;SDS011;35340;52.378;4.648;2023-02-21T05:52:09;4.47;;;2.28;;
48941;SDS011;35340;52.378;4.648;2023-02-21T05:54:36;9.88;;;2.20;;
48941;SDS011;35340;52.378;4.648;2023-02-21T05:57:02;3.88;;;2.17;;
48941;SDS011;35340;52.378;4.648;2023-02-21T05:59:28;5.30;;;2.10;;
48941;SDS011;35340;52.378;4.648;2023-02-21T06:01:53;4.55;;;1.98;;
48941;SDS011;35340;52.378;4.648;2023-02-21T06:04:20;3.20;;;2.08;;
48941;SDS011;35340;52.378;4.648;2023-02-21T06:06:45;4.80;;;2.17;;
48941;SDS011;35340;52.378;4.648;2023-02-21T06:09:11;4.65;;;1.90;;
48941;SDS011;35340;52.378;4.648;2023-02-21T06:11:37;6.82;;;2.03;;
48941;SDS011;35340;52.378;4.648;2023-02-21T06:14:05;3.65;;;1.77;;
48941;SDS011;35340;52.378;4.648;2023-02-21T06:16:33;3.88;;;2.05;;
48941;SDS011;35340;52.378;4.648;2023-02-21T06:18:59;2.65;;;1.77;;
48941;SDS011;35340;52.378;4.648;2023-02-21T06:21:26;6.47;;;2.00;;
48941;SDS011;35340;52.378;4.648;2023-02-21T06:23:51;2.72;;;1.83;;
48941;SDS011;35340;52.378;4.648;2023-02-21T06:26:17;4.70;;;1.95;;
48941;SDS011;35340;52.378;4.648;2023-02-21T06:28:43;5.05;;;2.03;;
48941;SDS011;35340;52.378;4.648;2023-02-21T06:31:09;3.83;;;2.00;;
48941;SDS011;35340;52.378;4.648;2023-02-21T06:33:35;2.70;;;1.90;;
48941;SDS011;35340;52.378;4.648;2023-02-21T06:36:04;3.97;;;1.80;;
48941;SDS011;35340;52.378;4.648;2023-02-21T06:38:31;4.57;;;1.80;;
48941;SDS011;35340;52.378;4.648;2023-02-21T06:40:57;2.58;;;1.70;;
48941;SDS011;35340;52.378;4.648;2023-02-21T06:43:23;2.88;;;1.90;;
48941;SDS011;35340;52.378;4.648;2023-02-21T06:45:48;3.15;;;1.88;;
48941;SDS011;35340;52.378;4.648;2023-02-21T06:48:14;3.72;;;1.80;;
48941;SDS011;35340;52.378;4.648;2023-02-21T06:50:41;3.72;;;1.95;;
48941;SDS011;35340;52.378;4.648;2023-02-21T06:53:06;6.95;;;3.38;;
48941;SDS011;35340;52.378;4.648;2023-02-21T06:55:31;9.80;;;3.70;;
48941;SDS011;35340;52.378;4.648;2023-02-21T06:57:57;8.88;;;3.05;;
48941;SDS011;35340;52.378;4.648;2023-02-21T07:00:23;8.93;;;3.42;;
48941;SDS011;35340;52.378;4.648;2023-02-21T07:02:51;5.65;;;3.17;;
48941;SDS011;35340;52.378;4.648;2023-02-21T07:05:19;6.68;;;3.30;;
48941;SDS011;35340;52.378;4.648;2023-02-21T07:07:44;8.35;;;3.00;;
48941;SDS011;35340;52.378;4.648;2023-02-21T07:10:10;6.15;;;2.95;;
48941;SDS011;35340;52.378;4.648;2023-02-21T07:12:44;5.95;;;3.00;;
48941;SDS011;35340;52.378;4.648;2023-02-21T07:15:09;7.35;;;3.60;;
48941;SDS011;35340;52.378;4.648;2023-02-21T07:17:35;7.60;;;2.83;;
48941;SDS011;35340;52.378;4.648;2023-02-21T07:20:00;6.28;;;2.75;;
48941;SDS011;35340;52.378;4.648;2023-02-21T07:22:26;5.18;;;2.70;;
48941;SDS011;35340;52.378;4.648;2023-02-21T07:24:52;9.00;;;3.40;;
48941;SDS011;35340;52.378;4.648;2023-02-21T07:27:18;4.55;;;2.72;;
48941;SDS011;35340;52.378;4.648;2023-02-21T07:29:47;9.02;;;2.92;;
48941;SDS011;35340;52.378;4.648;2023-02-21T07:32:13;6.05;;;2.50;;
48941;SDS011;35340;52.378;4.648;2023-02-21T07:34:40;4.22;;;2.42;;
48941;SDS011;35340;52.378;4.648;2023-02-21T07:37:05;5.80;;;2.72;;
48941;SDS011;35340;52.378;4.648;2023-02-21T07:39:30;4.18;;;2.47;;
48941;SDS011;35340;52.378;4.648;2023-02-21T07:41:56;5.88;;;2.88;;
48941;SDS011;35340;52.378;4.648;2023-02-21T07:44:21;3.85;;;2.60;;
48941;SDS011;35340;52.378;4.648;2023-02-21T07:46:50;4.97;;;2.42;;
48941;SDS011;35340;52.378;4.648;2023-02-21T07:49:15;4.20;;;2.70;;
48941;SDS011;35340;52.378;4.648;2023-02-21T07:51:43;4.45;;;2.10;;
48941;SDS011;35340;52.378;4.648;2023-02-21T07:54:09;3.53;;;2.00;;
48941;SDS011;35340;52.378;4.648;2023-02-21T07:56:34;6.53;;;2.65;;
48941;SDS011;35340;52.378;4.648;2023-02-21T07:58:59;3.55;;;2.28;;
48941;SDS011;35340;52.378;4.648;2023-02-21T08:01:25;5.18;;;2.30;;
48941;SDS011;35340;52.378;4.648;2023-02-21T08:03:51;5.22;;;2.30;;
48941;SDS011;35340;52.378;4.648;2023-02-21T08:06:17;5.10;;;2.30;;
48941;SDS011;35340;52.378;4.648;2023-02-21T08:08:43;3.45;;;1.92;;
48941;SDS011;35340;52.378;4.648;2023-02-21T08:11:09;4.20;;;2.17;;
48941;SDS011;35340;52.378;4.648;2023-02-21T08:13:35;3.63;;;1.90;;
48941;SDS011;35340;52.378;4.648;2023-02-21T08:16:00;3.85;;;2.22;;
48941;SDS011;35340;52.378;4.648;2023-02-21T08:18:25;4.00;;;2.30;;
48941;SDS011;35340;52.378;4.648;2023-02-21T08:20:54;4.15;;;2.25;;
48941;SDS011;35340;52.378;4.648;2023-02-21T08:23:23;4.47;;;1.90;;
48941;SDS011;35340;52.378;4.648;2023-02-21T08:25:48;4.82;;;2.55;;
48941;SDS011;35340;52.378;4.648;2023-02-21T08:28:14;3.40;;;1.70;;
48941;SDS011;35340;52.378;4.648;2023-02-21T08:30:40;3.72;;;1.90;;
48941;SDS011;35340;52.378;4.648;2023-02-21T08:33:05;4.05;;;2.20;;
48941;SDS011;35340;52.378;4.648;2023-02-21T08:35:31;2.70;;;1.85;;
48941;SDS011;35340;52.378;4.648;2023-02-21T08:37:57;3.15;;;1.70;;
48941;SDS011;35340;52.378;4.648;2023-02-21T08:40:27;3.20;;;1.88;;
48941;SDS011;35340;52.378;4.648;2023-02-21T08:42:55;3.40;;;2.00;;
48941;SDS011;35340;52.378;4.648;2023-02-21T08:45:21;2.97;;;1.90;;
48941;SDS011;35340;52.378;4.648;2023-02-21T08:47:49;2.75;;;1.83;;
48941;SDS011;35340;52.378;4.648;2023-02-21T08:50:15;2.28;;;1.50;;
48941;SDS011;35340;52.378;4.648;2023-02-21T08:52:41;2.63;;;1.63;;
48941;SDS011;35340;52.378;4.648;2023-02-21T08:55:07;2.55;;;1.83;;
48941;SDS011;35340;52.378;4.648;2023-02-21T08:57:32;2.40;;;1.50;;
48941;SDS011;35340;52.378;4.648;2023-02-21T08:59:58;3.08;;;2.05;;
48941;SDS011;35340;52.378;4.648;2023-02-21T09:02:24;3.38;;;1.83;;
48941;SDS011;35340;52.378;4.648;2023-02-21T09:04:51;2.90;;;1.70;;
48941;SDS011;35340;52.378;4.648;2023-02-21T09:07:18;3.03;;;1.70;;
48941;SDS011;35340;52.378;4.648;2023-02-21T09:09:45;2.42;;;1.77;;
48941;SDS011;35340;52.378;4.648;2023-02-21T09:12:10;2.95;;;1.70;;
48941;SDS011;35340;52.378;4.648;2023-02-21T09:14:37;2.55;;;1.73;;
48941;SDS011;35340;52.378;4.648;2023-02-21T09:17:05;2.53;;;1.60;;
48941;SDS011;35340;52.378;4.648;2023-02-21T09:19:31;2.50;;;1.40;;
48941;SDS011;35340;52.378;4.648;2023-02-21T09:21:58;2.08;;;1.45;;
48941;SDS011;35340;52.378;4.648;2023-02-21T09:24:24;2.25;;;1.48;;
48941;SDS011;35340;52.378;4.648;2023-02-21T09:26:53;2.28;;;1.50;;
48941;SDS011;35340;52.378;4.648;2023-02-21T09:29:23;2.20;;;1.20;;
48941;SDS011;35340;52.378;4.648;2023-02-21T09:31:49;3.03;;;1.40;;
48941;SDS011;35340;52.378;4.648;2023-02-21T09:34:15;2.50;;;1.63;;
48941;SDS011;35340;52.378;4.648;2023-02-21T09:36:41;2.00;;;1.40;;
48941;SDS011;35340;52.378;4.648;2023-02-21T09:39:07;2.97;;;1.50;;
48941;SDS011;35340;52.378;4.648;2023-02-21T09:41:33;3.33;;;1.40;;
48941;SDS011;35340;52.378;4.648;2023-02-21T09:44:00;2.17;;;1.33;;
48941;SDS011;35340;52.378;4.648;2023-02-21T09:46:30;1.75;;;1.20;;
48941;SDS011;35340;52.378;4.648;2023-02-21T09:48:56;2.05;;;1.30;;
48941;SDS011;35340;52.378;4.648;2023-02-21T09:51:22;2.08;;;1.30;;
48941;SDS011;35340;52.378;4.648;2023-02-21T09:53:49;1.50;;;1.20;;
48941;SDS011;35340;52.378;4.648;2023-02-21T09:59:04;1.50;;;1.17;;
48941;SDS011;35340;52.378;4.648;2023-02-21T10:01:46;3.15;;;1.30;;
48941;SDS011;35340;52.378;4.648;2023-02-21T10:07:25;2.13;;;1.35;;
48941;SDS011;35340;52.378;4.648;2023-02-21T10:23:37;2.08;;;1.25;;
48941;SDS011;35340;52.378;4.648;2023-02-21T10:26:11;1.95;;;1.10;;
48941;SDS011;35340;52.378;4.648;2023-02-21T10:28:40;1.60;;;1.17;;
48941;SDS011;35340;52.378;4.648;2023-02-21T10:31:19;2.22;;;1.02;;
48941;SDS011;35340;52.378;4.648;2023-02-21T10:33:57;1.65;;;1.30;;
48941;SDS011;35340;52.378;4.648;2023-02-21T10:36:24;1.50;;;1.20;;
48941;SDS011;35340;52.378;4.648;2023-02-21T10:38:55;2.25;;;1.10;;
48941;SDS011;35340;52.378;4.648;2023-02-21T10:41:24;2.63;;;1.20;;
48941;SDS011;35340;52.378;4.648;2023-02-21T10:43:54;2.45;;;1.30;;
48941;SDS011;35340;52.378;4.648;2023-02-21T10:46:30;1.90;;;1.13;;
48941;SDS011;35340;52.378;4.648;2023-02-21T10:49:14;2.28;;;1.17;;
48941;SDS011;35340;52.378;4.648;2023-02-21T10:51:45;2.33;;;1.35;;
48941;SDS011;35340;52.378;4.648;2023-02-21T10:54:21;2.13;;;1.20;;
48941;SDS011;35340;52.378;4.648;2023-02-21T10:56:48;2.30;;;1.45;;
48941;SDS011;35340;52.378;4.648;2023-02-21T10:59:27;1.95;;;1.38;;
48941;SDS011;35340;52.378;4.648;2023-02-21T11:01:54;2.28;;;1.20;;
48941;SDS011;35340;52.378;4.648;2023-02-21T11:04:23;1.80;;;1.20;;
48941;SDS011;35340;52.378;4.648;2023-02-21T11:06:54;1.80;;;1.13;;
48941;SDS011;35340;52.378;4.648;2023-02-21T11:09:40;2.30;;;1.25;;
48941;SDS011;35340;52.378;4.648;2023-02-21T11:14:40;2.08;;;1.20;;
48941;SDS011;35340;52.378;4.648;2023-02-21T11:19:43;1.52;;;1.15;;
48941;SDS011;35340;52.378;4.648;2023-02-21T11:22:12;2.05;;;1.40;;
48941;SDS011;35340;52.378;4.648;2023-02-21T11:27:10;1.70;;;1.20;;
48941;SDS011;35340;52.378;4.648;2023-02-21T11:29:36;1.83;;;1.02;;
48941;SDS011;35340;52.378;4.648;2023-02-21T11:32:11;1.48;;;1.30;;
48941;SDS011;35340;52.378;4.648;2023-02-21T11:34:44;2.28;;;1.25;;
48941;SDS011;35340;52.378;4.648;2023-02-21T11:37:12;1.45;;;0.90;;
48941;SDS011;35340;52.378;4.648;2023-02-21T11:39:39;1.67;;;0.95;;
48941;SDS011;35340;52.378;4.648;2023-02-21T11:42:28;1.45;;;0.90;;
48941;SDS011;35340;52.378;4.648;2023-02-21T11:47:44;1.40;;;1.10;;
48941;SDS011;35340;52.378;4.648;2023-02-21T11:50:26;1.42;;;0.88;;
48941;SDS011;35340;52.378;4.648;2023-02-21T11:53:03;1.75;;;1.10;;
48941;SDS011;35340;52.378;4.648;2023-02-21T11:55:38;1.60;;;1.10;;
48941;SDS011;35340;52.378;4.648;2023-02-21T11:58:21;1.80;;;1.20;;
48941;SDS011;35340;52.378;4.648;2023-02-21T12:00:54;2.03;;;1.35;;
48941;SDS011;35340;52.378;4.648;2023-02-21T12:09:04;1.90;;;1.30;;
48941;SDS011;35340;52.378;4.648;2023-02-21T12:23:51;1.75;;;1.33;;
48941;SDS011;35340;52.378;4.648;2023-02-21T12:36:55;1.95;;;1.45;;
48941;SDS011;35340;52.378;4.648;2023-02-21T12:48:44;1.65;;;1.23;;
48941;SDS011;35340;52.378;4.648;2023-02-21T12:51:16;1.60;;;1.10;;
48941;SDS011;35340;52.378;4.648;2023-02-21T12:53:54;2.50;;;1.52;;
48941;SDS011;35340;52.378;4.648;2023-02-21T12:56:46;3.10;;;1.23;;
48941;SDS011;35340;52.378;4.648;2023-02-21T12:59:27;1.58;;;1.33;;
48941;SDS011;35340;52.378;4.648;2023-02-21T13:01:55;1.65;;;1.33;;
48941;SDS011;35340;52.378;4.648;2023-02-21T13:07:23;1.85;;;1.30;;
48941;SDS011;35340;52.378;4.648;2023-02-21T13:12:36;1.85;;;1.20;;
48941;SDS011;35340;52.378;4.648;2023-02-21T13:17:40;1.50;;;1.40;;
48941;SDS011;35340;52.378;4.648;2023-02-21T13:20:09;1.70;;;1.40;;
48941;SDS011;35340;52.378;4.648;2023-02-21T13:28:28;1.90;;;1.48;;
48941;SDS011;35340;52.378;4.648;2023-02-21T13:31:05;3.20;;;1.42;;
48941;SDS011;35340;52.378;4.648;2023-02-21T13:33:52;1.77;;;1.30;;
48941;SDS011;35340;52.378;4.648;2023-02-21T13:36:28;1.52;;;1.25;;
48941;SDS011;35340;52.378;4.648;2023-02-21T13:47:00;1.80;;;1.30;;
48941;SDS011;35340;52.378;4.648;2023-02-21T13:57:50;2.30;;;1.37;;
48941;SDS011;35340;52.378;4.648;2023-02-21T14:02:59;2.05;;;1.40;;
48941;SDS011;35340;52.378;4.648;2023-02-21T14:08:07;1.67;;;1.27;;
48941;SDS011;35340;52.378;4.648;2023-02-21T14:13:20;1.60;;;1.30;;
48941;SDS011;35340;52.378;4.648;2023-02-21T14:18:38;1.70;;;1.50;;
48941;SDS011;35340;52.378;4.648;2023-02-21T14:21:32;1.60;;;1.20;;
48941;SDS011;35340;52.378;4.648;2023-02-21T14:29:40;2.03;;;1.40;;
48941;SDS011;35340;52.378;4.648;2023-02-21T14:39:44;1.58;;;1.20;;
48941;SDS011;35340;52.378;4.648;2023-02-21T14:42:17;1.30;;;1.20;;
48941;SDS011;35340;52.378;4.648;2023-02-21T15:01:23;1.80;;;1.45;;
48941;SDS011;35340;52.378;4.648;2023-02-21T15:10:02;1.67;;;1.40;;
48941;SDS011;35340;52.378;4.648;2023-02-21T15:12:47;1.98;;;1.30;;
48941;SDS011;35340;52.378;4.648;2023-02-21T15:17:57;1.30;;;1.10;;
48941;SDS011;35340;52.378;4.648;2023-02-21T15:20:26;1.25;;;1.05;;
48941;SDS011;35340;52.378;4.648;2023-02-21T15:23:13;1.30;;;1.13;;
48941;SDS011;35340;52.378;4.648;2023-02-21T15:25:52;1.50;;;1.02;;
48941;SDS011;35340;52.378;4.648;2023-02-21T15:28:28;1.40;;;1.15;;
48941;SDS011;35340;52.378;4.648;2023-02-21T15:30:59;1.33;;;0.93;;
48941;SDS011;35340;52.378;4.648;2023-02-21T15:33:38;1.35;;;1.20;;
48941;SDS011;35340;52.378;4.648;2023-02-21T15:41:54;1.77;;;1.10;;
48941;SDS011;35340;52.378;4.648;2023-02-21T15:44:28;1.95;;;1.02;;
48941;SDS011;35340;52.378;4.648;2023-02-21T15:47:03;1.33;;;0.90;;
48941;SDS011;35340;52.378;4.648;2023-02-21T15:49:30;1.52;;;1.02;;
48941;SDS011;35340;52.378;4.648;2023-02-21T15:52:01;1.50;;;1.10;;
48941;SDS011;35340;52.378;4.648;2023-02-21T15:54:29;0.88;;;0.80;;
48941;SDS011;35340;52.378;4.648;2023-02-21T15:57:19;1.20;;;0.90;;
48941;SDS011;35340;52.378;4.648;2023-02-21T15:59:50;1.25;;;1.00;;
48941;SDS011;35340;52.378;4.648;2023-02-21T16:02:40;1.40;;;1.10;;
48941;SDS011;35340;52.378;4.648;2023-02-21T16:05:20;1.75;;;1.10;;
48941;SDS011;35340;52.378;4.648;2023-02-21T16:07:49;2.20;;;1.30;;
48941;SDS011;35340;52.378;4.648;2023-02-21T16:10:18;1.55;;;1.15;;
48941;SDS011;35340;52.378;4.648;2023-02-21T16:12:46;1.23;;;1.08;;
48941;SDS011;35340;52.378;4.648;2023-02-21T16:17:54;1.90;;;1.13;;
48941;SDS011;35340;52.378;4.648;2023-02-21T16:20:24;1.60;;;1.20;;
48941;SDS011;35340;52.378;4.648;2023-02-21T16:28:21;1.75;;;1.15;;
48941;SDS011;35340;52.378;4.648;2023-02-21T16:30:47;1.40;;;1.00;;
48941;SDS011;35340;52.378;4.648;2023-02-21T16:33:13;1.63;;;1.30;;
48941;SDS011;35340;52.378;4.648;2023-02-21T16:35:38;1.75;;;1.20;;
48941;SDS011;35340;52.378;4.648;2023-02-21T16:38:04;1.35;;;1.02;;
48941;SDS011;35340;52.378;4.648;2023-02-21T16:40:33;1.40;;;1.00;;
48941;SDS011;35340;52.378;4.648;2023-02-21T16:43:00;1.73;;;1.10;;
48941;SDS011;35340;52.378;4.648;2023-02-21T16:45:27;1.67;;;1.20;;
48941;SDS011;35340;52.378;4.648;2023-02-21T16:47:58;1.70;;;1.15;;
48941;SDS011;35340;52.378;4.648;2023-02-21T16:50:32;1.42;;;1.15;;
48941;SDS011;35340;52.378;4.648;2023-02-21T16:52:59;2.17;;;1.10;;
48941;SDS011;35340;52.378;4.648;2023-02-21T16:55:26;1.40;;;1.08;;
48941;SDS011;35340;52.378;4.648;2023-02-21T16:57:52;1.70;;;1.20;;
48941;SDS011;35340;52.378;4.648;2023-02-21T17:00:21;1.42;;;1.10;;
48941;SDS011;35340;52.378;4.648;2023-02-21T17:02:50;1.58;;;1.10;;
48941;SDS011;35340;52.378;4.648;2023-02-21T17:05:19;1.40;;;1.08;;
48941;SDS011;35340;52.378;4.648;2023-02-21T17:07:46;2.63;;;1.00;;
48941;SDS011;35340;52.378;4.648;2023-02-21T17:10:12;1.50;;;1.10;;
48941;SDS011;35340;52.378;4.648;2023-02-21T17:12:38;1.95;;;1.02;;
48941;SDS011;35340;52.378;4.648;2023-02-21T17:15:03;3.60;;;1.25;;
48941;SDS011;35340;52.378;4.648;2023-02-21T17:17:29;1.40;;;1.00;;
48941;SDS011;35340;52.378;4.648;2023-02-21T17:19:55;1.55;;;1.08;;
48941;SDS011;35340;52.378;4.648;2023-02-21T17:22:20;1.40;;;1.20;;
48941;SDS011;35340;52.378;4.648;2023-02-21T17:25:03;1.17;;;1.00;;
48941;SDS011;35340;52.378;4.648;2023-02-21T17:27:51;3.92;;;1.13;;
48941;SDS011;35340;52.378;4.648;2023-02-21T17:30:26;1.33;;;0.93;;
48941;SDS011;35340;52.378;4.648;2023-02-21T17:33:21;4.03;;;1.00;;
48941;SDS011;35340;52.378;4.648;2023-02-21T17:35:47;1.35;;;1.20;;
48941;SDS011;35340;52.378;4.648;2023-02-21T17:38:12;1.60;;;1.02;;
48941;SDS011;35340;52.378;4.648;2023-02-21T17:40:41;1.48;;;1.15;;
48941;SDS011;35340;52.378;4.648;2023-02-21T17:43:07;1.30;;;1.00;;
48941;SDS011;35340;52.378;4.648;2023-02-21T17:48:41;3.28;;;1.30;;
48941;SDS011;35340;52.378;4.648;2023-02-21T17:51:22;1.25;;;1.10;;
48941;SDS011;35340;52.378;4.648;2023-02-21T17:53:50;1.48;;;1.20;;
48941;SDS011;35340;52.378;4.648;2023-02-21T17:56:17;1.48;;;1.08;;
48941;SDS011;35340;52.378;4.648;2023-02-21T17:58:50;1.60;;;1.27;;
48941;SDS011;35340;52.378;4.648;2023-02-21T18:01:16;1.42;;;1.15;;
48941;SDS011;35340;52.378;4.648;2023-02-21T18:03:44;1.65;;;1.20;;
48941;SDS011;35340;52.378;4.648;2023-02-21T18:06:15;1.40;;;1.20;;
48941;SDS011;35340;52.378;4.648;2023-02-21T18:08:47;3.45;;;1.40;;
48941;SDS011;35340;52.378;4.648;2023-02-21T18:11:14;1.55;;;1.30;;
48941;SDS011;35340;52.378;4.648;2023-02-21T18:13:43;1.50;;;1.08;;
48941;SDS011;35340;52.378;4.648;2023-02-21T18:16:08;1.88;;;1.38;;
48941;SDS011;35340;52.378;4.648;2023-02-21T18:18:34;3.03;;;1.48;;
48941;SDS011;35340;52.378;4.648;2023-02-21T18:21:01;1.40;;;1.30;;
48941;SDS011;35340;52.378;4.648;2023-02-21T18:23:28;1.67;;;1.30;;
48941;SDS011;35340;52.378;4.648;2023-02-21T18:25:54;1.52;;;1.30;;
48941;SDS011;35340;52.378;4.648;2023-02-21T18:28:20;2.45;;;1.45;;
48941;SDS011;35340;52.378;4.648;2023-02-21T18:30:46;1.70;;;1.13;;
48941;SDS011;35340;52.378;4.648;2023-02-21T18:33:12;1.50;;;1.35;;
48941;SDS011;35340;52.378;4.648;2023-02-21T18:35:40;1.65;;;1.30;;
48941;SDS011;35340;52.378;4.648;2023-02-21T18:38:08;1.67;;;1.42;;
48941;SDS011;35340;52.378;4.648;2023-02-21T18:40:37;1.90;;;1.60;;
48941;SDS011;35340;52.378;4.648;2023-02-21T18:43:31;2.38;;;1.80;;
48941;SDS011;35340;52.378;4.648;2023-02-21T18:45:57;1.52;;;1.20;;
48941;SDS011;35340;52.378;4.648;2023-02-21T18:48:25;1.95;;;1.48;;
48941;SDS011;35340;52.378;4.648;2023-02-21T18:50:55;1.67;;;1.47;;
48941;SDS011;35340;52.378;4.648;2023-02-21T18:53:21;2.10;;;1.70;;
48941;SDS011;35340;52.378;4.648;2023-02-21T18:55:48;2.30;;;1.73;;
48941;SDS011;35340;52.378;4.648;2023-02-21T18:58:17;1.88;;;1.67;;
48941;SDS011;35340;52.378;4.648;2023-02-21T19:00:43;2.30;;;1.90;;